メインページ
METAR-TAF:

METAR-TAF

空港 :

Al Bahah, サウジアラビア

緯度: 20-18N, 経度: 041-38E, 海抜: 1652m

現時点の気象観測

当レポートは1時間42分前の16:00(UTC)に作成
西の風 10kt
気温 28°C
湿度 48%
気圧 1015 hPa
視程: 4300m
広範な塵

METAR: OEBA 181600Z 27010KT 4300 DU NSC 28/16 Q1015 NOSIG

時間: 20:42 (17:42 UTC)

予報

当レポートは6時間42分前の11:00(UTC)に作成
予報は18日の 12時(UTC)から 19日の 18時(UTC)まで有効
西の風 8kt、最大18ktの突風を伴う
視程: 7000m
高度3000ftの雲はほとんどない
18日の 12時(UTC)から 18日の 18時(UTC)まで一時的に
視程: 4000m
高度2500ftの雲はほとんどない, 積乱雲.
高度3000ftの雲は散在している
広範な塵, 風塵

TAF: OEBA 181100Z 1812/1918 28008G18KT 7000 FEW030 TEMPO 1812/1818 4000 DU BLDU FEW025CB SCT030

4,000以上の空港の気象観測と天気予報(METAR報とTAF報)

利用可能な観測所は地図上に黄色い丸と赤い丸で示す。

丸の上にカーソルを重ねると観測所名を参照できる。

次にクリックすると気象観測と天気予報を参照できる。

マップの切り替え:黒色「×」印の緑ボタンをクリックして拡大、「-」印の緑ボタンをクリックして縮小、緑色の三角印をクリックして隣りの地図に切り替え


METAR-TAF: